createdAt,value
2023-05-24T00:01:59.847Z,8.50
2023-05-24T00:04:30.321Z,9.80
2023-05-24T00:06:58.193Z,9.47
2023-05-24T00:09:24.712Z,11.87
2023-05-24T00:11:51.248Z,10.67
2023-05-24T00:14:17.781Z,10.17
2023-05-24T00:16:46.468Z,13.80
2023-05-24T00:19:18.515Z,12.20
2023-05-24T00:21:46.040Z,11.33
2023-05-24T00:24:12.667Z,8.87
2023-05-24T00:26:39.305Z,10.63
2023-05-24T00:29:06.056Z,8.73
2023-05-24T00:31:32.721Z,15.50
2023-05-24T00:33:59.330Z,19.10
2023-05-24T00:36:25.896Z,10.63
2023-05-24T00:38:53.637Z,12.67
2023-05-24T00:41:20.260Z,11.23
2023-05-24T00:43:46.777Z,12.60
2023-05-24T00:46:16.890Z,12.97
2023-05-24T00:48:44.836Z,10.70
2023-05-24T00:51:12.748Z,14.83
2023-05-24T00:53:40.391Z,11.27
2023-05-24T00:56:07.649Z,7.83
2023-05-24T00:58:34.492Z,7.47
2023-05-24T01:01:02.659Z,11.83
2023-05-24T01:03:29.975Z,10.17
2023-05-24T01:05:57.842Z,9.40
2023-05-24T01:08:46.106Z,9.37
2023-05-24T01:11:23.274Z,13.40
2023-05-24T01:13:59.184Z,10.07
2023-05-24T01:16:32.415Z,6.43
2023-05-24T01:19:03.440Z,8.83
2023-05-24T01:21:48.691Z,10.03
2023-05-24T01:24:18.218Z,10.10
2023-05-24T01:27:07.308Z,7.07
2023-05-24T01:29:35.111Z,13.07
2023-05-24T01:32:02.757Z,9.20
2023-05-24T01:34:29.857Z,8.10
2023-05-24T01:36:56.440Z,8.97
2023-05-24T01:39:25.424Z,6.43
2023-05-24T01:42:03.441Z,10.53
2023-05-24T01:44:35.192Z,10.27
2023-05-24T01:47:08.394Z,10.33
2023-05-24T01:49:38.857Z,9.97
2023-05-24T01:52:09.102Z,9.97
2023-05-24T01:54:38.165Z,9.23
2023-05-24T01:57:09.226Z,13.50
2023-05-24T01:59:36.621Z,11.17
2023-05-24T02:02:03.225Z,9.33
2023-05-24T02:04:29.953Z,8.43
2023-05-24T02:06:56.478Z,11.20
2023-05-24T02:09:23.030Z,15.13
2023-05-24T02:11:49.520Z,9.67
2023-05-24T02:14:17.390Z,8.63
2023-05-24T02:16:46.979Z,11.60
2023-05-24T02:19:14.321Z,9.87
2023-05-24T02:21:41.388Z,9.70
2023-05-24T02:24:08.051Z,8.77
2023-05-24T02:26:34.572Z,6.30
2023-05-24T02:29:01.062Z,12.23
2023-05-24T02:31:28.834Z,13.23
2023-05-24T02:33:56.241Z,8.53
2023-05-24T02:36:23.548Z,12.47
2023-05-24T02:38:51.084Z,10.30
2023-05-24T02:41:18.304Z,8.77
2023-05-24T02:43:46.041Z,12.63
2023-05-24T02:46:13.321Z,9.27
2023-05-24T02:48:40.234Z,12.10
2023-05-24T02:51:07.002Z,12.00
2023-05-24T02:53:33.621Z,12.07
2023-05-24T02:56:00.386Z,12.30
2023-05-24T02:58:30.393Z,11.70
2023-05-24T03:00:56.939Z,10.40
2023-05-24T03:03:23.571Z,8.70
2023-05-24T03:05:50.146Z,9.87
2023-05-24T03:08:16.820Z,14.70
2023-05-24T03:10:43.748Z,9.67
2023-05-24T03:13:10.738Z,9.53
2023-05-24T03:15:37.339Z,12.07
2023-05-24T03:18:04.088Z,11.90
2023-05-24T03:20:31.195Z,15.60
2023-05-24T03:22:57.899Z,8.13
2023-05-24T03:25:24.460Z,9.77
2023-05-24T03:27:50.991Z,10.63
2023-05-24T03:30:17.539Z,14.37
2023-05-24T03:32:44.142Z,13.50
2023-05-24T03:35:12.184Z,10.90
2023-05-24T03:37:39.196Z,10.17
2023-05-24T03:40:06.772Z,9.27
2023-05-24T03:42:33.326Z,10.97
2023-05-24T03:44:59.957Z,8.63
2023-05-24T03:47:26.730Z,13.83
2023-05-24T03:49:53.275Z,8.63
2023-05-24T03:52:19.853Z,11.00
2023-05-24T03:54:46.384Z,10.90
2023-05-24T03:57:13.013Z,9.27
2023-05-24T03:59:41.191Z,11.07
2023-05-24T04:02:08.224Z,13.77
2023-05-24T04:04:34.857Z,8.33
2023-05-24T04:07:01.404Z,12.57
2023-05-24T04:09:27.950Z,8.17
2023-05-24T04:11:54.534Z,16.50
2023-05-24T04:14:21.904Z,11.80
2023-05-24T04:16:48.549Z,10.03
2023-05-24T04:19:15.124Z,10.57
2023-05-24T04:21:41.676Z,14.00
2023-05-24T04:24:08.383Z,12.73
2023-05-24T04:26:35.194Z,11.53
2023-05-24T04:29:01.853Z,17.37
2023-05-24T04:31:30.320Z,10.63
2023-05-24T04:33:58.868Z,11.40
2023-05-24T04:36:26.230Z,12.37
2023-05-24T04:38:57.524Z,15.93
2023-05-24T04:41:24.449Z,12.23
2023-05-24T04:43:51.127Z,16.70
2023-05-24T04:46:17.718Z,13.83
2023-05-24T04:48:44.709Z,9.13
2023-05-24T04:51:11.403Z,13.53
2023-05-24T04:53:38.667Z,12.33
2023-05-24T04:56:05.337Z,13.17
2023-05-24T04:58:31.948Z,19.80
2023-05-24T05:00:58.452Z,11.53
2023-05-24T05:03:24.974Z,10.37
2023-05-24T05:05:51.706Z,9.40
2023-05-24T05:08:18.311Z,7.10
2023-05-24T05:10:44.867Z,13.70
2023-05-24T05:13:11.498Z,11.40
2023-05-24T05:15:38.106Z,14.77
2023-05-24T05:18:04.673Z,12.40
2023-05-24T05:20:31.448Z,12.93
2023-05-24T05:22:58.071Z,12.10
2023-05-24T05:25:24.710Z,13.60
2023-05-24T05:27:51.286Z,16.47
2023-05-24T05:30:18.093Z,13.93
2023-05-24T05:32:44.780Z,16.90
2023-05-24T05:35:11.380Z,9.40
2023-05-24T05:37:37.921Z,13.23
2023-05-24T05:40:04.755Z,9.70
2023-05-24T05:42:31.292Z,14.03
2023-05-24T05:44:57.919Z,16.23
2023-05-24T05:47:24.550Z,16.27
2023-05-24T05:49:51.170Z,10.87
2023-05-24T05:52:17.754Z,13.47
2023-05-24T05:54:47.256Z,13.53
2023-05-24T05:57:13.797Z,10.77
2023-05-24T05:59:40.469Z,13.13
2023-05-24T06:02:07.528Z,11.47
2023-05-24T06:04:34.601Z,8.90
2023-05-24T06:07:01.439Z,10.70
2023-05-24T06:09:28.014Z,13.50
2023-05-24T06:11:54.680Z,17.33
2023-05-24T06:14:25.383Z,15.73
2023-05-24T06:16:54.594Z,18.07
2023-05-24T06:19:21.796Z,11.15
2023-05-24T06:21:49.521Z,19.08
2023-05-24T06:24:22.274Z,16.65
2023-05-24T06:26:50.327Z,13.02
2023-05-24T06:29:19.677Z,13.75
2023-05-24T06:31:47.641Z,9.40
2023-05-24T06:34:17.757Z,12.52
2023-05-24T06:36:47.265Z,12.93
2023-05-24T06:39:14.728Z,10.80
2023-05-24T06:41:42.284Z,9.85
2023-05-24T06:44:09.290Z,12.27
2023-05-24T06:46:36.068Z,13.35
2023-05-24T06:49:03.352Z,10.68
2023-05-24T06:51:30.883Z,16.33
2023-05-24T06:53:57.860Z,19.43
2023-05-24T06:56:24.474Z,11.40
2023-05-24T06:58:51.147Z,12.77
2023-05-24T07:01:18.686Z,15.50
2023-05-24T07:03:45.371Z,13.80
2023-05-24T07:06:14.184Z,16.98
2023-05-24T07:08:44.280Z,11.50
2023-05-24T07:11:10.964Z,12.93
2023-05-24T07:13:37.520Z,9.80
2023-05-24T07:16:04.222Z,13.30
2023-05-24T07:18:31.175Z,14.80
2023-05-24T07:20:57.850Z,12.15
2023-05-24T07:23:24.586Z,12.95
2023-05-24T07:25:51.274Z,19.48
2023-05-24T07:28:20.195Z,15.05
2023-05-24T07:30:46.952Z,10.57
2023-05-24T07:33:13.800Z,8.85
2023-05-24T07:35:40.629Z,10.35
2023-05-24T07:38:07.700Z,7.35
2023-05-24T07:40:34.948Z,11.40
2023-05-24T07:43:02.263Z,15.65
2023-05-24T07:45:31.284Z,11.32
2023-05-24T07:47:57.895Z,12.35
2023-05-24T07:50:25.055Z,13.35
2023-05-24T07:52:51.685Z,11.32
2023-05-24T07:57:15.031Z,15.55
2023-05-24T07:59:41.607Z,15.18
2023-05-24T08:02:11.281Z,11.53
2023-05-24T08:04:38.236Z,15.68
2023-05-24T08:07:06.227Z,12.20
2023-05-24T08:11:16.443Z,15.93
2023-05-24T08:14:09.779Z,17.65
2023-05-24T08:16:36.487Z,16.15
2023-05-24T08:48:30.026Z,11.98
2023-05-24T08:50:57.956Z,14.47
2023-05-24T08:53:24.964Z,17.40
2023-05-24T08:55:55.947Z,11.48
2023-05-24T08:58:23.153Z,12.20
2023-05-24T09:00:49.824Z,13.55
2023-05-24T09:03:17.076Z,20.95
2023-05-24T09:05:45.418Z,12.77
2023-05-24T09:08:13.522Z,13.05
2023-05-24T09:10:53.319Z,9.93
2023-05-24T09:13:23.648Z,17.65
2023-05-24T09:15:50.321Z,22.33
2023-05-24T09:18:16.963Z,15.93
2023-05-24T09:20:43.893Z,17.07
2023-05-24T09:23:11.517Z,13.77
2023-05-24T09:25:43.912Z,20.13
2023-05-24T09:28:13.275Z,20.17
2023-05-24T09:30:39.969Z,18.50
2023-05-24T09:33:08.351Z,12.00
2023-05-24T09:35:36.935Z,13.70
2023-05-24T09:38:04.038Z,15.05
2023-05-24T09:40:30.804Z,19.57
2023-05-24T09:43:09.176Z,16.50
2023-05-24T09:45:46.809Z,19.92
2023-05-24T09:48:14.307Z,22.23
2023-05-24T09:50:41.373Z,15.30
2023-05-24T09:53:08.444Z,12.32
2023-05-24T09:55:38.253Z,13.20
2023-05-24T09:58:09.097Z,14.88
2023-05-24T10:00:40.282Z,13.48
2023-05-24T10:03:08.747Z,17.60
2023-05-24T10:05:35.919Z,13.25
2023-05-24T10:08:05.072Z,25.60
2023-05-24T10:10:33.382Z,17.67
2023-05-24T10:13:01.628Z,18.83
2023-05-24T10:15:29.737Z,14.20
2023-05-24T10:17:57.177Z,14.93
2023-05-24T10:20:24.669Z,17.83
2023-05-24T10:23:02.067Z,20.00
2023-05-24T10:25:29.870Z,14.57
2023-05-24T10:27:59.569Z,20.25
2023-05-24T10:30:34.496Z,21.50
2023-05-24T10:33:01.947Z,17.80
2023-05-24T10:35:29.605Z,23.57
2023-05-24T10:37:57.425Z,12.13
2023-05-24T10:40:27.427Z,15.07
2023-05-24T10:42:54.826Z,14.17
2023-05-24T10:45:27.428Z,15.73
2023-05-24T10:47:54.669Z,13.93
2023-05-24T10:50:22.294Z,13.97
2023-05-24T10:52:49.369Z,16.37
2023-05-24T10:55:16.118Z,21.93
2023-05-24T10:57:42.693Z,15.30
2023-05-24T11:00:33.864Z,13.70
2023-05-24T11:03:11.761Z,19.23
2023-05-24T11:05:58.916Z,11.03
2023-05-24T11:08:36.379Z,16.88
2023-05-24T11:13:44.254Z,17.58
2023-05-24T11:16:38.191Z,14.23
2023-05-24T11:19:17.687Z,11.98
2023-05-24T11:21:46.110Z,13.20
2023-05-24T11:24:12.914Z,12.85
2023-05-24T11:26:40.190Z,19.48
2023-05-24T11:29:07.738Z,12.93
2023-05-24T11:31:37.010Z,17.02
2023-05-24T11:34:06.847Z,14.35
2023-05-24T11:36:33.864Z,17.85
2023-05-24T11:39:01.478Z,14.30
2023-05-24T11:41:28.825Z,13.93
2023-05-24T11:43:55.771Z,13.50
2023-05-24T11:46:22.612Z,9.73
2023-05-24T11:48:57.293Z,16.60
2023-05-24T11:51:28.262Z,13.52
2023-05-24T11:53:56.161Z,12.35
2023-05-24T11:56:23.316Z,14.55
2023-05-24T11:58:53.380Z,12.43
2023-05-24T12:01:27.478Z,14.13
2023-05-24T12:03:55.180Z,10.17
2023-05-24T12:06:22.855Z,14.20
2023-05-24T12:08:49.883Z,13.05
2023-05-24T12:11:17.281Z,10.95
2023-05-24T12:13:44.008Z,18.08
2023-05-24T12:16:12.052Z,14.98
2023-05-24T12:18:45.840Z,16.42
2023-05-24T12:21:20.256Z,14.02
2023-05-24T12:23:48.295Z,12.77
2023-05-24T12:26:18.951Z,15.52
2023-05-24T12:28:45.778Z,11.40
2023-05-24T12:31:12.449Z,15.95
2023-05-24T12:33:39.723Z,19.25
2023-05-24T12:36:07.890Z,13.55
2023-05-24T12:38:34.465Z,11.32
2023-05-24T12:41:12.417Z,13.27
2023-05-24T12:43:40.932Z,15.65
2023-05-24T12:46:07.718Z,15.00
2023-05-24T12:48:34.422Z,15.38
2023-05-24T12:51:02.237Z,20.83
2023-05-24T12:53:28.957Z,14.63
2023-05-24T12:55:56.325Z,9.68
2023-05-24T12:58:22.969Z,12.25
2023-05-24T13:00:51.514Z,13.85
2023-05-24T13:03:18.498Z,13.50
2023-05-24T13:05:46.151Z,13.98
2023-05-24T13:08:13.598Z,15.57
2023-05-24T13:13:12.164Z,16.87
2023-05-24T13:15:39.284Z,12.25
2023-05-24T13:18:06.248Z,16.52
2023-05-24T13:20:33.415Z,12.05
2023-05-24T13:23:00.041Z,17.98
2023-05-24T13:25:27.210Z,13.48
2023-05-24T13:27:53.889Z,17.00
2023-05-24T13:30:27.479Z,17.88
2023-05-24T13:32:58.866Z,14.98
2023-05-24T13:35:25.558Z,21.67
2023-05-24T13:37:54.226Z,17.77
2023-05-24T13:40:21.015Z,16.13
2023-05-24T13:42:47.786Z,10.93
2023-05-24T13:45:14.707Z,10.95
2023-05-24T13:47:41.748Z,14.75
2023-05-24T13:50:08.911Z,12.73
2023-05-24T13:52:35.476Z,12.50
2023-05-24T13:55:04.864Z,13.52
2023-05-24T13:57:43.455Z,24.08
2023-05-24T14:00:18.208Z,12.77
2023-05-24T14:02:44.905Z,14.48
2023-05-24T14:05:25.933Z,15.65
2023-05-24T14:07:54.719Z,13.75
2023-05-24T14:10:21.865Z,12.68
2023-05-24T14:12:59.391Z,17.90
2023-05-24T14:15:35.216Z,9.77
2023-05-24T14:18:07.513Z,11.13
2023-05-24T14:20:36.927Z,14.25
2023-05-24T14:23:04.459Z,11.88
2023-05-24T14:25:31.854Z,18.40
2023-05-24T14:27:59.116Z,19.67
2023-05-24T14:30:28.742Z,17.25
2023-05-24T14:32:55.327Z,20.17
2023-05-24T14:35:22.120Z,16.63
2023-05-24T14:37:48.698Z,16.17
2023-05-24T14:40:17.583Z,13.70
2023-05-24T14:42:45.830Z,12.03
2023-05-24T14:45:12.738Z,20.05
2023-05-24T14:47:39.357Z,11.77
2023-05-24T14:50:06.697Z,8.88
2023-05-24T14:52:33.280Z,11.35
2023-05-24T14:54:59.986Z,10.95
2023-05-24T14:57:26.522Z,8.38
2023-05-24T14:59:53.076Z,8.23
2023-05-24T15:02:19.613Z,7.97
2023-05-24T15:04:46.230Z,8.93
2023-05-24T15:07:12.867Z,8.32
2023-05-24T15:09:39.397Z,9.93
2023-05-24T15:12:07.693Z,10.90
2023-05-24T15:14:34.498Z,11.63
2023-05-24T15:17:01.137Z,13.23
2023-05-24T15:19:27.960Z,7.88
2023-05-24T15:21:54.640Z,15.80
2023-05-24T15:24:21.260Z,13.55
2023-05-24T15:26:48.386Z,17.55
2023-05-24T15:29:15.008Z,18.50
2023-05-24T15:31:41.680Z,25.10
2023-05-24T15:34:08.415Z,26.90
2023-05-24T15:36:34.940Z,29.87
2023-05-24T15:39:01.552Z,25.30
2023-05-24T15:41:28.378Z,21.80
2023-05-24T15:43:54.994Z,16.77
2023-05-24T15:46:21.962Z,21.40
2023-05-24T15:48:48.848Z,21.67
2023-05-24T15:53:45.611Z,20.33
2023-05-24T15:56:12.736Z,17.70
2023-05-24T15:58:39.356Z,22.63
2023-05-24T16:01:06.052Z,18.53
2023-05-24T16:03:32.772Z,17.83
2023-05-24T16:05:59.513Z,20.13
2023-05-24T16:08:27.972Z,18.47
2023-05-24T16:10:55.327Z,19.27
2023-05-24T16:13:21.980Z,19.50
2023-05-24T16:15:51.829Z,22.90
2023-05-24T16:18:21.445Z,15.67
2023-05-24T16:20:51.665Z,18.07
2023-05-24T16:23:19.338Z,19.00
2023-05-24T16:25:49.461Z,20.00
2023-05-24T16:28:15.997Z,19.47
2023-05-24T16:30:42.764Z,18.17
2023-05-24T16:33:09.566Z,21.60
2023-05-24T16:35:36.346Z,19.50
2023-05-24T16:38:02.946Z,25.77
2023-05-24T16:40:29.581Z,26.67
2023-05-24T16:42:56.186Z,20.90
2023-05-24T16:45:22.856Z,23.33
2023-05-24T16:47:49.484Z,23.00
2023-05-24T16:50:16.324Z,17.87
2023-05-24T16:52:43.472Z,27.83
2023-05-24T16:55:11.405Z,21.80
2023-05-24T16:57:38.391Z,28.10
2023-05-24T17:00:06.056Z,22.53
2023-05-24T17:02:33.978Z,23.50
2023-05-24T17:05:00.952Z,26.67
2023-05-24T17:07:27.905Z,21.97
2023-05-24T17:09:54.541Z,21.17
2023-05-24T17:12:21.752Z,21.77
2023-05-24T17:14:48.391Z,15.53
2023-05-24T17:17:14.970Z,16.77
2023-05-24T17:19:41.523Z,20.00
2023-05-24T17:22:08.715Z,17.67
2023-05-24T17:24:35.376Z,22.80
2023-05-24T17:27:02.685Z,18.33
2023-05-24T17:29:30.079Z,18.77
2023-05-24T17:31:56.730Z,21.13
2023-05-24T17:34:23.308Z,19.87
2023-05-24T17:36:49.831Z,22.70
2023-05-24T17:39:17.445Z,22.00
2023-05-24T17:41:44.557Z,20.70
2023-05-24T17:44:11.212Z,18.17
2023-05-24T17:46:40.542Z,19.90
2023-05-24T17:49:08.051Z,19.27
2023-05-24T17:51:35.068Z,24.87
2023-05-24T17:54:01.619Z,20.63
2023-05-24T17:56:29.098Z,18.90
2023-05-24T17:58:55.747Z,19.97
2023-05-24T18:01:22.546Z,15.60
2023-05-24T18:03:49.090Z,24.53
2023-05-24T18:06:15.681Z,19.47
2023-05-24T18:08:43.930Z,20.17
2023-05-24T18:11:12.636Z,22.10
2023-05-24T18:13:40.493Z,16.90
2023-05-24T18:16:08.211Z,16.43
2023-05-24T18:18:34.800Z,19.37
2023-05-24T18:21:01.482Z,19.33
2023-05-24T18:23:28.259Z,18.37
2023-05-24T18:26:00.679Z,17.10
2023-05-24T18:28:28.991Z,18.07
2023-05-24T18:30:56.340Z,18.80
2023-05-24T18:33:23.057Z,20.57
2023-05-24T18:35:49.652Z,23.17
2023-05-24T18:38:16.237Z,20.43
2023-05-24T18:40:42.840Z,22.93
2023-05-24T18:43:09.338Z,18.50
2023-05-24T18:45:35.926Z,24.40
2023-05-24T18:48:02.486Z,25.07
2023-05-24T18:50:29.022Z,23.50
2023-05-24T18:52:55.949Z,27.10
2023-05-24T18:55:22.448Z,18.33
2023-05-24T18:57:49.199Z,22.80
2023-05-24T19:00:19.356Z,24.27
2023-05-24T19:02:46.108Z,25.23
2023-05-24T19:05:12.738Z,24.30
2023-05-24T19:08:53.673Z,23.07
2023-05-24T19:11:20.214Z,25.07
2023-05-24T19:13:46.777Z,22.03
2023-05-24T19:16:17.510Z,20.90
2023-05-24T19:18:44.977Z,27.63
2023-05-24T19:21:12.273Z,26.67
2023-05-24T19:23:40.486Z,26.20
2023-05-24T19:26:07.097Z,28.73
2023-05-24T19:28:37.650Z,21.40
2023-05-24T19:31:04.428Z,26.83
2023-05-24T19:33:30.972Z,25.83
2023-05-24T19:35:57.465Z,22.93
2023-05-24T19:38:23.981Z,27.63
2023-05-24T19:40:50.529Z,24.37
2023-05-24T19:43:17.010Z,24.37
2023-05-24T19:45:43.870Z,22.70
2023-05-24T19:48:10.593Z,29.40
2023-05-24T19:50:39.265Z,26.10
2023-05-24T19:53:05.969Z,21.03
2023-05-24T19:55:32.593Z,25.60
2023-05-24T19:57:59.092Z,33.73
2023-05-24T20:00:25.726Z,24.90
2023-05-24T20:02:52.316Z,25.10
2023-05-24T20:05:18.970Z,21.47
2023-05-24T20:07:45.760Z,26.47
2023-05-24T20:10:12.884Z,23.77
2023-05-24T20:12:39.598Z,25.87
2023-05-24T20:15:09.819Z,25.90
2023-05-24T20:17:36.354Z,31.80
2023-05-24T20:20:04.262Z,30.77
2023-05-24T20:22:31.121Z,26.50
2023-05-24T20:24:57.593Z,25.30
2023-05-24T20:27:24.086Z,28.90
2023-05-24T20:29:51.066Z,27.27
2023-05-24T20:32:17.623Z,28.00
2023-05-24T20:34:44.169Z,29.17
2023-05-24T20:37:10.830Z,26.53
2023-05-24T20:39:37.353Z,27.43
2023-05-24T20:42:04.104Z,25.87
2023-05-24T20:44:32.577Z,28.90
2023-05-24T20:46:59.424Z,28.27
2023-05-24T20:49:26.128Z,25.63
2023-05-24T20:51:52.838Z,25.37
2023-05-24T20:54:19.477Z,29.50
2023-05-24T20:56:46.361Z,27.47
2023-05-24T20:59:13.243Z,29.97
2023-05-24T21:01:40.017Z,27.17
2023-05-24T21:04:06.629Z,25.87
2023-05-24T21:06:34.288Z,27.17
2023-05-24T21:09:01.831Z,27.00
2023-05-24T21:11:28.554Z,29.80
2023-05-24T21:13:56.796Z,27.67
2023-05-24T21:16:23.819Z,29.63
2023-05-24T21:18:53.656Z,29.47
2023-05-24T21:21:20.276Z,31.07
2023-05-24T21:23:46.805Z,26.47
2023-05-24T21:26:13.341Z,30.07
2023-05-24T21:28:39.863Z,26.97
2023-05-24T21:31:07.030Z,29.90
2023-05-24T21:33:33.551Z,32.80
2023-05-24T21:36:00.126Z,26.23
2023-05-24T21:38:26.596Z,33.33
2023-05-24T21:40:53.085Z,33.70
2023-05-24T21:43:19.623Z,32.47
2023-05-24T21:45:46.186Z,31.13
2023-05-24T21:48:12.706Z,27.90
2023-05-24T21:50:39.250Z,30.30
2023-05-24T21:53:05.853Z,29.80
2023-05-24T21:55:32.382Z,28.27
2023-05-24T21:57:58.899Z,28.87
2023-05-24T22:00:26.907Z,32.03
2023-05-24T22:02:53.518Z,34.00
2023-05-24T22:05:20.327Z,30.10
2023-05-24T22:07:46.915Z,36.77
2023-05-24T22:10:13.515Z,32.60
2023-05-24T22:12:40.133Z,39.07
2023-05-24T22:15:07.241Z,38.27
2023-05-24T22:17:36.769Z,31.43
2023-05-24T22:20:06.081Z,37.90
2023-05-24T22:22:32.774Z,32.63
2023-05-24T22:25:01.929Z,37.97
2023-05-24T22:27:29.021Z,38.00
2023-05-24T22:29:56.049Z,41.10
2023-05-24T22:32:22.773Z,34.27
2023-05-24T22:34:49.352Z,35.47
2023-05-24T22:37:16.854Z,33.20
2023-05-24T22:39:45.080Z,38.00
2023-05-24T22:42:11.810Z,38.97
2023-05-24T22:44:38.343Z,38.73
2023-05-24T22:47:05.007Z,39.33
2023-05-24T22:49:33.919Z,40.57
2023-05-24T22:52:01.001Z,35.07
2023-05-24T22:54:27.592Z,37.60
2023-05-24T22:56:54.114Z,36.47
2023-05-24T22:59:20.913Z,38.77
2023-05-24T23:01:47.588Z,41.10
2023-05-24T23:04:20.489Z,41.97
2023-05-24T23:06:52.141Z,39.97
2023-05-24T23:09:28.829Z,39.67
2023-05-24T23:11:58.134Z,38.73
2023-05-24T23:14:24.954Z,41.03
2023-05-24T23:16:51.576Z,42.20
2023-05-24T23:19:18.490Z,40.80
2023-05-24T23:21:45.402Z,41.67
2023-05-24T23:24:14.483Z,44.63
2023-05-24T23:26:41.873Z,42.63
2023-05-24T23:29:08.645Z,49.57
2023-05-24T23:31:35.750Z,47.07
2023-05-24T23:34:02.314Z,43.47
2023-05-24T23:36:28.835Z,48.90
2023-05-24T23:38:55.349Z,42.90
2023-05-24T23:41:21.939Z,48.37
2023-05-24T23:43:48.576Z,49.20
2023-05-24T23:46:17.152Z,45.13
2023-05-24T23:48:43.764Z,50.97
2023-05-24T23:51:10.986Z,44.33
2023-05-24T23:53:37.523Z,48.83
2023-05-24T23:56:04.252Z,51.97
2023-05-24T23:58:31.899Z,47.37
